sensor_id;sensor_type;location;lat;lon;timestamp;temperature;humidity
5705;DHT22;2877;48.238;11.160;2022-10-16T00:00:16;12.40;99.90
5705;DHT22;2877;48.238;11.160;2022-10-16T00:02:41;12.40;99.90
5705;DHT22;2877;48.238;11.160;2022-10-16T00:05:07;12.40;99.90
5705;DHT22;2877;48.238;11.160;2022-10-16T00:07:32;12.40;99.90
5705;DHT22;2877;48.238;11.160;2022-10-16T00:09:58;12.40;99.90
5705;DHT22;2877;48.238;11.160;2022-10-16T00:12:23;12.50;99.90
5705;DHT22;2877;48.238;11.160;2022-10-16T00:14:49;12.40;99.90
5705;DHT22;2877;48.238;11.160;2022-10-16T00:17:14;12.40;99.90
5705;DHT22;2877;48.238;11.160;2022-10-16T00:19:40;12.50;99.90
5705;DHT22;2877;48.238;11.160;2022-10-16T00:22:06;12.50;99.90
5705;DHT22;2877;48.238;11.160;2022-10-16T00:24:31;12.50;99.90
5705;DHT22;2877;48.238;11.160;2022-10-16T00:26:57;12.60;99.90
5705;DHT22;2877;48.238;11.160;2022-10-16T00:29:22;12.60;99.90
5705;DHT22;2877;48.238;11.160;2022-10-16T00:31:48;12.50;99.90
5705;DHT22;2877;48.238;11.160;2022-10-16T00:34:13;12.50;99.90
5705;DHT22;2877;48.238;11.160;2022-10-16T00:36:39;12.40;99.90
5705;DHT22;2877;48.238;11.160;2022-10-16T00:39:05;12.40;99.90
5705;DHT22;2877;48.238;11.160;2022-10-16T00:41:31;12.50;99.90
5705;DHT22;2877;48.238;11.160;2022-10-16T00:44:03;12.50;99.90
5705;DHT22;2877;48.238;11.160;2022-10-16T00:46:37;12.40;99.90
5705;DHT22;2877;48.238;11.160;2022-10-16T00:49:17;12.50;99.90
5705;DHT22;2877;48.238;11.160;2022-10-16T00:51:52;12.50;99.90
5705;DHT22;2877;48.238;11.160;2022-10-16T00:54:28;12.40;99.90
5705;DHT22;2877;48.238;11.160;2022-10-16T00:56:55;12.40;99.90
5705;DHT22;2877;48.238;11.160;2022-10-16T00:59:34;12.40;99.90
5705;DHT22;2877;48.238;11.160;2022-10-16T01:02:01;12.40;99.90
5705;DHT22;2877;48.238;11.160;2022-10-16T01:04:32;12.40;99.90
5705;DHT22;2877;48.238;11.160;2022-10-16T01:14:40;12.40;99.90
5705;DHT22;2877;48.238;11.160;2022-10-16T01:17:15;12.40;99.90
5705;DHT22;2877;48.238;11.160;2022-10-16T01:27:57;12.40;99.90
5705;DHT22;2877;48.238;11.160;2022-10-16T01:30:28;12.40;99.90
5705;DHT22;2877;48.238;11.160;2022-10-16T01:33:01;12.50;99.90
5705;DHT22;2877;48.238;11.160;2022-10-16T01:35:36;12.50;99.90
5705;DHT22;2877;48.238;11.160;2022-10-16T01:38:29;12.50;99.90
5705;DHT22;2877;48.238;11.160;2022-10-16T01:41:09;12.50;99.90
5705;DHT22;2877;48.238;11.160;2022-10-16T01:43:42;12.50;99.90
5705;DHT22;2877;48.238;11.160;2022-10-16T01:46:10;12.50;99.90
5705;DHT22;2877;48.238;11.160;2022-10-16T01:48:39;12.50;99.90
5705;DHT22;2877;48.238;11.160;2022-10-16T01:51:09;12.60;99.90
5705;DHT22;2877;48.238;11.160;2022-10-16T01:53:37;12.60;99.90
5705;DHT22;2877;48.238;11.160;2022-10-16T01:56:06;12.50;99.90
5705;DHT22;2877;48.238;11.160;2022-10-16T01:58:36;12.50;99.90
5705;DHT22;2877;48.238;11.160;2022-10-16T02:01:04;12.50;99.90
5705;DHT22;2877;48.238;11.160;2022-10-16T02:03:34;12.40;99.90
5705;DHT22;2877;48.238;11.160;2022-10-16T02:06:01;12.40;99.90
5705;DHT22;2877;48.238;11.160;2022-10-16T02:08:28;12.30;99.90
5705;DHT22;2877;48.238;11.160;2022-10-16T02:10:58;12.30;99.90
5705;DHT22;2877;48.238;11.160;2022-10-16T02:13:45;12.20;99.90
5705;DHT22;2877;48.238;11.160;2022-10-16T02:16:13;12.20;99.90
5705;DHT22;2877;48.238;11.160;2022-10-16T02:18:39;12.20;99.90
5705;DHT22;2877;48.238;11.160;2022-10-16T02:21:43;12.10;99.90
5705;DHT22;2877;48.238;11.160;2022-10-16T02:29:52;12.10;99.90
5705;DHT22;2877;48.238;11.160;2022-10-16T02:32:24;12.10;99.90
5705;DHT22;2877;48.238;11.160;2022-10-16T02:34:53;12.00;99.90
5705;DHT22;2877;48.238;11.160;2022-10-16T02:37:20;12.00;99.90
5705;DHT22;2877;48.238;11.160;2022-10-16T02:39:45;12.00;99.90
5705;DHT22;2877;48.238;11.160;2022-10-16T02:42:14;12.00;99.90
5705;DHT22;2877;48.238;11.160;2022-10-16T02:44:40;12.00;99.90
5705;DHT22;2877;48.238;11.160;2022-10-16T02:47:06;12.00;99.90
5705;DHT22;2877;48.238;11.160;2022-10-16T02:49:31;12.00;99.90
5705;DHT22;2877;48.238;11.160;2022-10-16T02:51:57;12.00;99.90
5705;DHT22;2877;48.238;11.160;2022-10-16T02:54:23;12.00;99.90
5705;DHT22;2877;48.238;11.160;2022-10-16T02:56:49;12.10;99.90
5705;DHT22;2877;48.238;11.160;2022-10-16T02:59:15;12.10;99.90
5705;DHT22;2877;48.238;11.160;2022-10-16T03:01:40;12.20;99.90
5705;DHT22;2877;48.238;11.160;2022-10-16T03:04:06;12.20;99.90
5705;DHT22;2877;48.238;11.160;2022-10-16T03:06:31;12.20;99.90
5705;DHT22;2877;48.238;11.160;2022-10-16T03:08:57;12.30;99.90
5705;DHT22;2877;48.238;11.160;2022-10-16T03:11:22;12.30;99.90
5705;DHT22;2877;48.238;11.160;2022-10-16T03:13:48;12.40;99.90
5705;DHT22;2877;48.238;11.160;2022-10-16T03:16:13;12.30;99.90
5705;DHT22;2877;48.238;11.160;2022-10-16T03:18:39;12.40;99.90
5705;DHT22;2877;48.238;11.160;2022-10-16T03:21:04;12.40;99.90
5705;DHT22;2877;48.238;11.160;2022-10-16T03:23:30;12.40;99.90
5705;DHT22;2877;48.238;11.160;2022-10-16T03:25:56;12.40;99.90
5705;DHT22;2877;48.238;11.160;2022-10-16T03:28:21;12.40;99.90
5705;DHT22;2877;48.238;11.160;2022-10-16T03:30:47;12.40;99.90
5705;DHT22;2877;48.238;11.160;2022-10-16T03:33:12;12.50;99.90
5705;DHT22;2877;48.238;11.160;2022-10-16T03:35:38;12.50;99.90
5705;DHT22;2877;48.238;11.160;2022-10-16T03:38:03;12.50;99.90
5705;DHT22;2877;48.238;11.160;2022-10-16T03:40:29;12.60;99.90
5705;DHT22;2877;48.238;11.160;2022-10-16T03:42:57;12.60;99.90
5705;DHT22;2877;48.238;11.160;2022-10-16T03:45:23;12.70;99.90
5705;DHT22;2877;48.238;11.160;2022-10-16T03:47:49;12.70;99.90
5705;DHT22;2877;48.238;11.160;2022-10-16T03:50:14;12.70;99.90
5705;DHT22;2877;48.238;11.160;2022-10-16T03:52:40;12.70;99.90
5705;DHT22;2877;48.238;11.160;2022-10-16T03:55:06;12.70;99.90
5705;DHT22;2877;48.238;11.160;2022-10-16T03:57:32;12.70;99.90
5705;DHT22;2877;48.238;11.160;2022-10-16T03:59:57;12.70;99.90
5705;DHT22;2877;48.238;11.160;2022-10-16T04:02:23;12.70;99.90
5705;DHT22;2877;48.238;11.160;2022-10-16T04:04:49;12.70;99.90
5705;DHT22;2877;48.238;11.160;2022-10-16T04:07:14;12.70;99.90
5705;DHT22;2877;48.238;11.160;2022-10-16T04:09:40;12.80;99.90
5705;DHT22;2877;48.238;11.160;2022-10-16T04:12:06;12.80;99.90
5705;DHT22;2877;48.238;11.160;2022-10-16T04:14:31;12.80;99.90
5705;DHT22;2877;48.238;11.160;2022-10-16T04:16:57;12.80;99.90
5705;DHT22;2877;48.238;11.160;2022-10-16T04:19:22;12.80;99.90
5705;DHT22;2877;48.238;11.160;2022-10-16T04:21:48;12.80;99.90
5705;DHT22;2877;48.238;11.160;2022-10-16T04:24:13;12.80;99.90
5705;DHT22;2877;48.238;11.160;2022-10-16T04:26:39;12.80;99.90
5705;DHT22;2877;48.238;11.160;2022-10-16T04:29:04;12.80;99.90
5705;DHT22;2877;48.238;11.160;2022-10-16T04:31:31;12.80;99.90
5705;DHT22;2877;48.238;11.160;2022-10-16T04:33:56;12.80;99.90
5705;DHT22;2877;48.238;11.160;2022-10-16T04:36:22;12.80;99.90
5705;DHT22;2877;48.238;11.160;2022-10-16T04:38:48;12.80;99.90
5705;DHT22;2877;48.238;11.160;2022-10-16T04:41:13;12.80;99.90
5705;DHT22;2877;48.238;11.160;2022-10-16T04:43:39;12.80;99.90
5705;DHT22;2877;48.238;11.160;2022-10-16T04:46:04;12.80;99.90
5705;DHT22;2877;48.238;11.160;2022-10-16T04:48:31;12.70;99.90
5705;DHT22;2877;48.238;11.160;2022-10-16T04:50:56;12.70;99.90
5705;DHT22;2877;48.238;11.160;2022-10-16T04:53:22;12.70;99.90
5705;DHT22;2877;48.238;11.160;2022-10-16T04:55:47;12.60;99.90
5705;DHT22;2877;48.238;11.160;2022-10-16T04:58:13;12.60;99.90
5705;DHT22;2877;48.238;11.160;2022-10-16T05:00:38;12.50;99.90
5705;DHT22;2877;48.238;11.160;2022-10-16T05:03:05;12.50;99.90
5705;DHT22;2877;48.238;11.160;2022-10-16T05:05:33;12.40;99.90
5705;DHT22;2877;48.238;11.160;2022-10-16T05:07:59;12.40;99.90
5705;DHT22;2877;48.238;11.160;2022-10-16T05:10:24;12.30;99.90
5705;DHT22;2877;48.238;11.160;2022-10-16T05:12:50;12.20;99.90
5705;DHT22;2877;48.238;11.160;2022-10-16T05:15:17;12.20;99.90
5705;DHT22;2877;48.238;11.160;2022-10-16T05:17:42;12.10;99.90
5705;DHT22;2877;48.238;11.160;2022-10-16T05:20:08;12.00;99.90
5705;DHT22;2877;48.238;11.160;2022-10-16T05:22:34;11.90;99.90
5705;DHT22;2877;48.238;11.160;2022-10-16T05:24:59;11.90;99.90
5705;DHT22;2877;48.238;11.160;2022-10-16T05:27:25;11.90;99.90
5705;DHT22;2877;48.238;11.160;2022-10-16T05:29:50;11.80;99.90
5705;DHT22;2877;48.238;11.160;2022-10-16T05:32:17;11.80;99.90
5705;DHT22;2877;48.238;11.160;2022-10-16T05:34:42;11.90;99.90
5705;DHT22;2877;48.238;11.160;2022-10-16T05:37:09;11.90;99.90
5705;DHT22;2877;48.238;11.160;2022-10-16T05:39:34;11.90;99.90
5705;DHT22;2877;48.238;11.160;2022-10-16T05:42:02;12.00;99.90
5705;DHT22;2877;48.238;11.160;2022-10-16T05:44:27;12.00;99.90
5705;DHT22;2877;48.238;11.160;2022-10-16T05:46:53;11.90;99.90
5705;DHT22;2877;48.238;11.160;2022-10-16T05:49:18;11.90;99.90
5705;DHT22;2877;48.238;11.160;2022-10-16T05:51:44;11.90;99.90
5705;DHT22;2877;48.238;11.160;2022-10-16T05:54:09;11.90;99.90
5705;DHT22;2877;48.238;11.160;2022-10-16T05:56:35;12.00;99.90
5705;DHT22;2877;48.238;11.160;2022-10-16T05:59:01;11.90;99.90
5705;DHT22;2877;48.238;11.160;2022-10-16T06:01:28;12.00;99.90
5705;DHT22;2877;48.238;11.160;2022-10-16T06:03:53;12.00;99.90
5705;DHT22;2877;48.238;11.160;2022-10-16T06:06:21;12.00;99.90
5705;DHT22;2877;48.238;11.160;2022-10-16T06:08:47;12.10;99.90
5705;DHT22;2877;48.238;11.160;2022-10-16T06:11:16;12.10;99.90
5705;DHT22;2877;48.238;11.160;2022-10-16T06:13:42;12.10;99.90
5705;DHT22;2877;48.238;11.160;2022-10-16T06:16:09;12.20;99.90
5705;DHT22;2877;48.238;11.160;2022-10-16T06:18:35;12.20;99.90
5705;DHT22;2877;48.238;11.160;2022-10-16T06:21:07;12.30;99.90
5705;DHT22;2877;48.238;11.160;2022-10-16T06:23:33;12.20;99.90
5705;DHT22;2877;48.238;11.160;2022-10-16T06:26:10;12.30;99.90
5705;DHT22;2877;48.238;11.160;2022-10-16T06:28:36;12.30;99.90
5705;DHT22;2877;48.238;11.160;2022-10-16T06:31:03;12.30;99.90
5705;DHT22;2877;48.238;11.160;2022-10-16T06:33:29;12.30;99.90
5705;DHT22;2877;48.238;11.160;2022-10-16T06:36:04;12.30;99.90
5705;DHT22;2877;48.238;11.160;2022-10-16T06:38:30;12.30;99.90
5705;DHT22;2877;48.238;11.160;2022-10-16T06:40:56;12.30;99.90
5705;DHT22;2877;48.238;11.160;2022-10-16T06:43:22;12.40;99.90
5705;DHT22;2877;48.238;11.160;2022-10-16T06:45:55;12.40;99.90
5705;DHT22;2877;48.238;11.160;2022-10-16T06:48:21;12.30;99.90
5705;DHT22;2877;48.238;11.160;2022-10-16T06:51:01;12.40;99.90
5705;DHT22;2877;48.238;11.160;2022-10-16T06:53:29;12.40;99.90
5705;DHT22;2877;48.238;11.160;2022-10-16T06:55:55;12.50;99.90
5705;DHT22;2877;48.238;11.160;2022-10-16T06:58:21;12.50;99.90
5705;DHT22;2877;48.238;11.160;2022-10-16T07:00:46;12.60;99.90
5705;DHT22;2877;48.238;11.160;2022-10-16T07:03:12;12.60;99.90
5705;DHT22;2877;48.238;11.160;2022-10-16T07:05:41;12.70;99.90
5705;DHT22;2877;48.238;11.160;2022-10-16T07:08:08;12.90;99.90
5705;DHT22;2877;48.238;11.160;2022-10-16T07:10:34;13.00;99.90
5705;DHT22;2877;48.238;11.160;2022-10-16T07:12:59;13.10;99.90
5705;DHT22;2877;48.238;11.160;2022-10-16T07:15:26;13.20;99.90
5705;DHT22;2877;48.238;11.160;2022-10-16T07:17:51;13.30;99.90
5705;DHT22;2877;48.238;11.160;2022-10-16T07:20:17;13.40;99.90
5705;DHT22;2877;48.238;11.160;2022-10-16T07:22:43;13.50;99.90
5705;DHT22;2877;48.238;11.160;2022-10-16T07:25:09;13.60;99.90
5705;DHT22;2877;48.238;11.160;2022-10-16T07:27:34;13.80;99.90
5705;DHT22;2877;48.238;11.160;2022-10-16T07:30:00;14.00;99.90
5705;DHT22;2877;48.238;11.160;2022-10-16T07:32:26;14.20;99.90
5705;DHT22;2877;48.238;11.160;2022-10-16T07:34:52;14.30;99.90
5705;DHT22;2877;48.238;11.160;2022-10-16T07:37:18;14.50;99.90
5705;DHT22;2877;48.238;11.160;2022-10-16T07:39:44;14.70;99.90
5705;DHT22;2877;48.238;11.160;2022-10-16T07:42:09;14.90;99.90
5705;DHT22;2877;48.238;11.160;2022-10-16T07:44:35;15.10;99.90
5705;DHT22;2877;48.238;11.160;2022-10-16T07:47:00;15.20;99.90
5705;DHT22;2877;48.238;11.160;2022-10-16T07:49:26;15.40;99.90
5705;DHT22;2877;48.238;11.160;2022-10-16T07:51:52;15.50;99.90
5705;DHT22;2877;48.238;11.160;2022-10-16T07:54:17;15.70;99.90
5705;DHT22;2877;48.238;11.160;2022-10-16T07:56:43;15.80;99.90
5705;DHT22;2877;48.238;11.160;2022-10-16T07:59:08;15.90;99.90
5705;DHT22;2877;48.238;11.160;2022-10-16T08:01:34;16.10;99.90
5705;DHT22;2877;48.238;11.160;2022-10-16T08:03:59;16.20;99.90
5705;DHT22;2877;48.238;11.160;2022-10-16T08:06:25;16.30;99.90
5705;DHT22;2877;48.238;11.160;2022-10-16T08:08:51;16.40;99.90
5705;DHT22;2877;48.238;11.160;2022-10-16T08:11:16;16.50;99.90
5705;DHT22;2877;48.238;11.160;2022-10-16T08:13:42;16.60;99.90
5705;DHT22;2877;48.238;11.160;2022-10-16T08:16:08;16.80;99.90
5705;DHT22;2877;48.238;11.160;2022-10-16T08:18:36;16.90;99.90
5705;DHT22;2877;48.238;11.160;2022-10-16T08:21:02;17.10;99.90
5705;DHT22;2877;48.238;11.160;2022-10-16T08:23:28;17.30;99.90
5705;DHT22;2877;48.238;11.160;2022-10-16T08:25:54;17.40;99.90
5705;DHT22;2877;48.238;11.160;2022-10-16T08:28:21;17.50;99.90
5705;DHT22;2877;48.238;11.160;2022-10-16T08:30:46;17.70;99.90
5705;DHT22;2877;48.238;11.160;2022-10-16T08:33:12;17.90;99.90
5705;DHT22;2877;48.238;11.160;2022-10-16T08:35:37;18.10;99.90
5705;DHT22;2877;48.238;11.160;2022-10-16T08:38:04;18.30;99.90
5705;DHT22;2877;48.238;11.160;2022-10-16T08:40:32;18.50;99.90
5705;DHT22;2877;48.238;11.160;2022-10-16T08:48:48;18.90;99.90
5705;DHT22;2877;48.238;11.160;2022-10-16T08:54:03;19.10;99.90
5705;DHT22;2877;48.238;11.160;2022-10-16T08:56:30;19.10;99.90
5705;DHT22;2877;48.238;11.160;2022-10-16T08:58:57;19.20;99.90
5705;DHT22;2877;48.238;11.160;2022-10-16T09:01:32;19.30;99.90
5705;DHT22;2877;48.238;11.160;2022-10-16T09:06:54;19.30;99.90
5705;DHT22;2877;48.238;11.160;2022-10-16T09:14:55;19.40;99.90
5705;DHT22;2877;48.238;11.160;2022-10-16T09:17:52;19.50;99.90
5705;DHT22;2877;48.238;11.160;2022-10-16T09:23:18;19.70;99.90
5705;DHT22;2877;48.238;11.160;2022-10-16T09:25:46;19.70;99.90
5705;DHT22;2877;48.238;11.160;2022-10-16T09:28:13;19.70;99.90
5705;DHT22;2877;48.238;11.160;2022-10-16T09:30:39;19.80;99.90
5705;DHT22;2877;48.238;11.160;2022-10-16T09:33:05;19.90;99.90
5705;DHT22;2877;48.238;11.160;2022-10-16T09:35:43;20.00;99.90
5705;DHT22;2877;48.238;11.160;2022-10-16T09:38:20;20.10;99.90
5705;DHT22;2877;48.238;11.160;2022-10-16T09:40:46;20.10;99.90
5705;DHT22;2877;48.238;11.160;2022-10-16T09:43:25;20.20;99.90
5705;DHT22;2877;48.238;11.160;2022-10-16T09:46:08;20.30;99.90
5705;DHT22;2877;48.238;11.160;2022-10-16T09:48:44;20.40;99.90
5705;DHT22;2877;48.238;11.160;2022-10-16T09:51:27;20.50;99.90
5705;DHT22;2877;48.238;11.160;2022-10-16T09:53:57;20.70;99.90
5705;DHT22;2877;48.238;11.160;2022-10-16T09:56:33;20.80;99.90
5705;DHT22;2877;48.238;11.160;2022-10-16T09:59:08;20.90;99.90
5705;DHT22;2877;48.238;11.160;2022-10-16T10:01:40;20.90;99.90
5705;DHT22;2877;48.238;11.160;2022-10-16T10:04:06;21.10;99.90
5705;DHT22;2877;48.238;11.160;2022-10-16T10:06:35;21.30;99.90
5705;DHT22;2877;48.238;11.160;2022-10-16T10:11:55;22.10;99.90
5705;DHT22;2877;48.238;11.160;2022-10-16T10:17:25;23.00;99.90
5705;DHT22;2877;48.238;11.160;2022-10-16T10:19:58;23.30;99.90
5705;DHT22;2877;48.238;11.160;2022-10-16T10:36:27;23.40;99.30
5705;DHT22;2877;48.238;11.160;2022-10-16T10:39:05;23.30;99.90
5705;DHT22;2877;48.238;11.160;2022-10-16T10:49:57;23.10;99.90
5705;DHT22;2877;48.238;11.160;2022-10-16T10:55:31;22.80;99.90
5705;DHT22;2877;48.238;11.160;2022-10-16T10:58:35;22.80;97.80
5705;DHT22;2877;48.238;11.160;2022-10-16T11:01:14;22.60;96.90
5705;DHT22;2877;48.238;11.160;2022-10-16T11:06:56;22.60;99.10
5705;DHT22;2877;48.238;11.160;2022-10-16T11:09:31;22.60;98.70
5705;DHT22;2877;48.238;11.160;2022-10-16T11:17:16;23.10;99.10
5705;DHT22;2877;48.238;11.160;2022-10-16T11:19:54;23.10;98.10
5705;DHT22;2877;48.238;11.160;2022-10-16T11:22:34;23.00;98.30
5705;DHT22;2877;48.238;11.160;2022-10-16T11:25:29;23.00;97.40
5705;DHT22;2877;48.238;11.160;2022-10-16T11:31:10;22.80;97.90
5705;DHT22;2877;48.238;11.160;2022-10-16T11:34:05;22.60;97.50
5705;DHT22;2877;48.238;11.160;2022-10-16T11:37:25;22.60;97.00
5705;DHT22;2877;48.238;11.160;2022-10-16T11:39:31;22.70;97.30
5705;DHT22;2877;48.238;11.160;2022-10-16T11:42:13;22.80;96.70
5705;DHT22;2877;48.238;11.160;2022-10-16T11:55:49;23.30;96.00
5705;DHT22;2877;48.238;11.160;2022-10-16T11:58:38;23.40;95.60
5705;DHT22;2877;48.238;11.160;2022-10-16T12:04:06;23.70;95.70
5705;DHT22;2877;48.238;11.160;2022-10-16T12:09:01;23.90;95.20
5705;DHT22;2877;48.238;11.160;2022-10-16T12:11:34;23.90;94.60
5705;DHT22;2877;48.238;11.160;2022-10-16T12:16:50;24.10;94.10
5705;DHT22;2877;48.238;11.160;2022-10-16T12:19:17;23.90;92.70
5705;DHT22;2877;48.238;11.160;2022-10-16T12:21:43;23.80;92.00
5705;DHT22;2877;48.238;11.160;2022-10-16T12:24:39;23.90;92.60
5705;DHT22;2877;48.238;11.160;2022-10-16T12:27:29;23.80;90.80
5705;DHT22;2877;48.238;11.160;2022-10-16T12:30:06;23.80;90.50
5705;DHT22;2877;48.238;11.160;2022-10-16T12:32:34;23.90;90.80
5705;DHT22;2877;48.238;11.160;2022-10-16T12:35:01;24.00;91.70
5705;DHT22;2877;48.238;11.160;2022-10-16T12:37:32;24.00;90.80
5705;DHT22;2877;48.238;11.160;2022-10-16T12:39:58;24.00;89.10
5705;DHT22;2877;48.238;11.160;2022-10-16T12:44:54;23.80;90.20
5705;DHT22;2877;48.238;11.160;2022-10-16T12:49:58;23.80;90.60
5705;DHT22;2877;48.238;11.160;2022-10-16T12:54:56;24.10;88.60
5705;DHT22;2877;48.238;11.160;2022-10-16T12:57:57;24.20;88.90
5705;DHT22;2877;48.238;11.160;2022-10-16T13:00:46;24.40;90.60
5705;DHT22;2877;48.238;11.160;2022-10-16T13:03:30;24.60;87.40
5705;DHT22;2877;48.238;11.160;2022-10-16T13:06:30;24.70;83.80
5705;DHT22;2877;48.238;11.160;2022-10-16T13:09:17;24.50;84.80
5705;DHT22;2877;48.238;11.160;2022-10-16T13:27:37;23.60;80.50
5705;DHT22;2877;48.238;11.160;2022-10-16T13:30:13;23.50;82.60
5705;DHT22;2877;48.238;11.160;2022-10-16T13:32:39;23.40;77.40
5705;DHT22;2877;48.238;11.160;2022-10-16T13:35:19;23.20;78.40
5705;DHT22;2877;48.238;11.160;2022-10-16T13:37:45;23.10;77.40
5705;DHT22;2877;48.238;11.160;2022-10-16T13:40:29;23.10;78.50
5705;DHT22;2877;48.238;11.160;2022-10-16T13:42:54;23.10;80.30
5705;DHT22;2877;48.238;11.160;2022-10-16T13:45:23;23.10;78.90
5705;DHT22;2877;48.238;11.160;2022-10-16T13:48:01;23.10;83.20
5705;DHT22;2877;48.238;11.160;2022-10-16T13:50:26;23.10;78.00
5705;DHT22;2877;48.238;11.160;2022-10-16T13:53:02;23.20;79.00
5705;DHT22;2877;48.238;11.160;2022-10-16T13:55:28;23.20;79.00
5705;DHT22;2877;48.238;11.160;2022-10-16T13:58:05;23.20;77.70
5705;DHT22;2877;48.238;11.160;2022-10-16T14:00:30;23.20;77.90
5705;DHT22;2877;48.238;11.160;2022-10-16T14:03:21;23.20;78.30
5705;DHT22;2877;48.238;11.160;2022-10-16T14:05:52;23.20;81.80
5705;DHT22;2877;48.238;11.160;2022-10-16T14:08:19;23.20;77.70
5705;DHT22;2877;48.238;11.160;2022-10-16T14:10:51;23.20;77.60
5705;DHT22;2877;48.238;11.160;2022-10-16T14:13:22;23.10;79.10
5705;DHT22;2877;48.238;11.160;2022-10-16T14:15:52;23.10;82.10
5705;DHT22;2877;48.238;11.160;2022-10-16T14:18:24;23.10;80.90
5705;DHT22;2877;48.238;11.160;2022-10-16T14:20:51;23.20;80.90
5705;DHT22;2877;48.238;11.160;2022-10-16T14:23:23;23.40;80.80
5705;DHT22;2877;48.238;11.160;2022-10-16T14:25:53;23.40;78.80
5705;DHT22;2877;48.238;11.160;2022-10-16T14:28:23;23.40;81.70
5705;DHT22;2877;48.238;11.160;2022-10-16T14:36:01;23.00;82.80
5705;DHT22;2877;48.238;11.160;2022-10-16T14:38:28;22.90;83.30
5705;DHT22;2877;48.238;11.160;2022-10-16T14:40:57;22.80;82.90
5705;DHT22;2877;48.238;11.160;2022-10-16T14:46:02;22.80;83.90
5705;DHT22;2877;48.238;11.160;2022-10-16T14:48:29;22.80;84.90
5705;DHT22;2877;48.238;11.160;2022-10-16T14:50:55;22.80;84.80
5705;DHT22;2877;48.238;11.160;2022-10-16T14:53:20;22.80;85.80
5705;DHT22;2877;48.238;11.160;2022-10-16T14:55:46;22.90;85.10
5705;DHT22;2877;48.238;11.160;2022-10-16T14:58:16;22.90;87.80
5705;DHT22;2877;48.238;11.160;2022-10-16T15:00:43;22.90;88.80
5705;DHT22;2877;48.238;11.160;2022-10-16T15:03:08;23.00;89.00
5705;DHT22;2877;48.238;11.160;2022-10-16T15:05:34;22.90;88.30
5705;DHT22;2877;48.238;11.160;2022-10-16T15:07:59;22.90;88.20
5705;DHT22;2877;48.238;11.160;2022-10-16T15:10:27;22.90;88.90
5705;DHT22;2877;48.238;11.160;2022-10-16T15:12:54;22.70;88.30
5705;DHT22;2877;48.238;11.160;2022-10-16T15:17:53;22.60;88.50
5705;DHT22;2877;48.238;11.160;2022-10-16T15:20:21;22.50;89.40
5705;DHT22;2877;48.238;11.160;2022-10-16T15:22:46;22.40;90.30
5705;DHT22;2877;48.238;11.160;2022-10-16T15:27:58;22.30;90.50
5705;DHT22;2877;48.238;11.160;2022-10-16T15:30:24;22.10;90.70
5705;DHT22;2877;48.238;11.160;2022-10-16T15:32:50;22.00;91.00
5705;DHT22;2877;48.238;11.160;2022-10-16T15:35:15;21.90;91.60
5705;DHT22;2877;48.238;11.160;2022-10-16T15:37:41;21.80;91.80
5705;DHT22;2877;48.238;11.160;2022-10-16T15:40:08;21.60;92.00
5705;DHT22;2877;48.238;11.160;2022-10-16T15:42:33;21.50;92.70
5705;DHT22;2877;48.238;11.160;2022-10-16T15:44:59;21.30;93.10
5705;DHT22;2877;48.238;11.160;2022-10-16T15:47:24;21.20;94.20
5705;DHT22;2877;48.238;11.160;2022-10-16T15:49:50;21.00;95.20
5705;DHT22;2877;48.238;11.160;2022-10-16T15:52:15;20.80;94.60
5705;DHT22;2877;48.238;11.160;2022-10-16T15:54:42;20.60;94.20
5705;DHT22;2877;48.238;11.160;2022-10-16T15:57:07;20.50;94.70
5705;DHT22;2877;48.238;11.160;2022-10-16T15:59:33;20.40;94.70
5705;DHT22;2877;48.238;11.160;2022-10-16T16:01:58;20.30;96.30
5705;DHT22;2877;48.238;11.160;2022-10-16T16:04:24;20.10;97.40
5705;DHT22;2877;48.238;11.160;2022-10-16T16:06:49;19.90;98.50
5705;DHT22;2877;48.238;11.160;2022-10-16T16:09:15;19.70;99.40
5705;DHT22;2877;48.238;11.160;2022-10-16T16:11:41;19.50;99.90
5705;DHT22;2877;48.238;11.160;2022-10-16T16:14:07;19.40;99.90
5705;DHT22;2877;48.238;11.160;2022-10-16T16:16:35;19.20;99.90
5705;DHT22;2877;48.238;11.160;2022-10-16T16:19:04;19.00;99.90
5705;DHT22;2877;48.238;11.160;2022-10-16T16:21:31;18.90;99.90
5705;DHT22;2877;48.238;11.160;2022-10-16T16:23:57;18.70;99.90
5705;DHT22;2877;48.238;11.160;2022-10-16T16:26:25;18.50;99.90
5705;DHT22;2877;48.238;11.160;2022-10-16T16:28:52;18.40;99.90
5705;DHT22;2877;48.238;11.160;2022-10-16T16:31:18;18.20;99.90
5705;DHT22;2877;48.238;11.160;2022-10-16T16:33:43;18.10;99.90
5705;DHT22;2877;48.238;11.160;2022-10-16T16:36:09;17.90;99.90
5705;DHT22;2877;48.238;11.160;2022-10-16T16:38:35;17.70;99.90
5705;DHT22;2877;48.238;11.160;2022-10-16T16:41:11;17.60;99.90
5705;DHT22;2877;48.238;11.160;2022-10-16T16:43:37;17.60;99.90
5705;DHT22;2877;48.238;11.160;2022-10-16T16:46:02;17.50;99.90
5705;DHT22;2877;48.238;11.160;2022-10-16T16:48:28;17.50;99.90
5705;DHT22;2877;48.238;11.160;2022-10-16T16:50:54;17.40;99.90
5705;DHT22;2877;48.238;11.160;2022-10-16T16:53:19;17.40;99.90
5705;DHT22;2877;48.238;11.160;2022-10-16T16:55:45;17.30;99.90
5705;DHT22;2877;48.238;11.160;2022-10-16T16:58:10;17.20;99.90
5705;DHT22;2877;48.238;11.160;2022-10-16T17:00:36;17.10;99.90
5705;DHT22;2877;48.238;11.160;2022-10-16T17:03:01;17.10;99.90
5705;DHT22;2877;48.238;11.160;2022-10-16T17:05:27;17.00;99.90
5705;DHT22;2877;48.238;11.160;2022-10-16T17:07:53;16.90;99.90
5705;DHT22;2877;48.238;11.160;2022-10-16T17:10:18;16.90;99.90
5705;DHT22;2877;48.238;11.160;2022-10-16T17:12:44;16.80;99.90
5705;DHT22;2877;48.238;11.160;2022-10-16T17:15:10;16.80;99.90
5705;DHT22;2877;48.238;11.160;2022-10-16T17:17:35;16.80;99.90
5705;DHT22;2877;48.238;11.160;2022-10-16T17:20:01;16.80;99.90
5705;DHT22;2877;48.238;11.160;2022-10-16T17:22:26;16.80;99.90
5705;DHT22;2877;48.238;11.160;2022-10-16T17:24:52;16.80;99.90
5705;DHT22;2877;48.238;11.160;2022-10-16T17:27:20;16.80;99.90
5705;DHT22;2877;48.238;11.160;2022-10-16T17:29:49;16.70;99.90
5705;DHT22;2877;48.238;11.160;2022-10-16T17:32:15;16.60;99.90
5705;DHT22;2877;48.238;11.160;2022-10-16T17:34:40;16.50;99.90
5705;DHT22;2877;48.238;11.160;2022-10-16T17:37:06;16.40;99.90
5705;DHT22;2877;48.238;11.160;2022-10-16T17:39:31;16.30;99.90
5705;DHT22;2877;48.238;11.160;2022-10-16T17:41:57;16.20;99.90
5705;DHT22;2877;48.238;11.160;2022-10-16T17:44:22;16.10;99.90
5705;DHT22;2877;48.238;11.160;2022-10-16T17:46:51;16.00;99.90
5705;DHT22;2877;48.238;11.160;2022-10-16T17:49:17;15.90;99.90
5705;DHT22;2877;48.238;11.160;2022-10-16T17:51:43;15.90;99.90
5705;DHT22;2877;48.238;11.160;2022-10-16T17:54:09;15.80;99.90
5705;DHT22;2877;48.238;11.160;2022-10-16T17:56:36;15.80;99.90
5705;DHT22;2877;48.238;11.160;2022-10-16T17:59:02;15.90;99.90
5705;DHT22;2877;48.238;11.160;2022-10-16T18:01:30;15.90;99.90
5705;DHT22;2877;48.238;11.160;2022-10-16T18:04:08;15.90;99.90
5705;DHT22;2877;48.238;11.160;2022-10-16T18:06:34;15.90;99.90
5705;DHT22;2877;48.238;11.160;2022-10-16T18:09:01;15.90;99.90
5705;DHT22;2877;48.238;11.160;2022-10-16T18:11:27;15.90;99.90
5705;DHT22;2877;48.238;11.160;2022-10-16T18:13:54;15.90;99.90